Time;durP1;ratioP1;P1;durP2;ratioP2;P2;SDS_P1;SDS_P2;PMS_P1;PMS_P2;Temp;Humidity;BMP_temperature;BMP_pressure;BME280_temperature;BME280_humidity;BME280_pressure;Samples;Min_cycle;Max_cycle;Signal;HPM_P1;HPM_P2
2022/02/10 00:14:23;;;;;;;47.87;23.73;;;;;;;;;;5041936;28;20197;-68
2022/02/10 00:19:43;;;;;;;53.53;24.40;;;;;;;;;;5044002;28;20797;-69
2022/02/10 00:22:15;;;;;;;51.50;25.13;;;;;;;;;;5042858;28;20434;-68
2022/02/10 00:35:52;;;;;;;53.63;25.17;;;;;;;;;;5049101;28;20216;-69
2022/02/10 00:38:21;;;;;;;55.43;27.20;;;;;;;;;;5049217;28;20224;-69
2022/02/10 00:40:46;;;;;;;56.50;26.83;;;;;;;;;;5047128;28;20274;-68
2022/02/10 00:43:13;;;;;;;59.27;27.53;;;;;;;;;;5048274;28;20664;-68
2022/02/10 00:45:38;;;;;;;55.78;25.98;;;;;;;;;;5044103;28;20272;-69
2022/02/10 00:48:07;;;;;;;56.30;26.83;;;;;;;;;;5047687;28;20331;-68
2022/02/10 00:50:34;;;;;;;61.17;27.23;;;;;;;;;;5044959;28;20303;-69
2022/02/10 00:55:32;;;;;;;54.97;25.90;;;;;;;;;;5047302;28;20190;-69
2022/02/10 00:57:59;;;;;;;59.33;27.50;;;;;;;;;;5039600;28;20193;-69
2022/02/10 01:11:32;;;;;;;52.67;26.67;;;;;;;;;;5042694;28;20711;-68
2022/02/10 01:24:27;;;;;;;55.15;27.75;;;;;;;;;;5043056;28;20181;-67
2022/02/10 01:30:27;;;;;;;58.20;27.40;;;;;;;;;;5047178;28;20263;-68
2022/02/10 01:32:56;;;;;;;62.33;28.77;;;;;;;;;;5041942;28;20549;-68
2022/02/10 01:35:23;;;;;;;60.25;28.90;;;;;;;;;;5045983;28;20185;-68
2022/02/10 01:37:49;;;;;;;54.40;27.27;;;;;;;;;;5044359;28;20285;-68
2022/02/10 01:40:32;;;;;;;64.17;30.17;;;;;;;;;;5044663;28;20186;-68
2022/02/10 01:57:42;;;;;;;65.47;30.17;;;;;;;;;;5046431;28;20266;-68
2022/02/10 02:04:53;;;;;;;63.93;30.77;;;;;;;;;;5044367;28;20724;-67
2022/02/10 02:07:27;;;;;;;69.73;31.70;;;;;;;;;;5046472;28;20212;-68
2022/02/10 02:09:53;;;;;;;66.10;31.53;;;;;;;;;;5046297;28;20224;-68
2022/02/10 02:12:18;;;;;;;65.63;31.02;;;;;;;;;;5045973;28;20214;-69
2022/02/10 02:14:44;;;;;;;69.63;31.88;;;;;;;;;;5046931;28;20704;-67
2022/02/10 02:17:09;;;;;;;67.20;32.13;;;;;;;;;;5045954;28;20181;-68
2022/02/10 02:19:36;;;;;;;71.50;31.57;;;;;;;;;;5046141;28;20232;-68
2022/02/10 02:22:03;;;;;;;68.20;31.10;;;;;;;;;;5038313;28;20219;-67
2022/02/10 02:24:29;;;;;;;66.82;32.60;;;;;;;;;;5048547;28;20185;-67
2022/02/10 02:27:03;;;;;;;64.15;30.95;;;;;;;;;;5052896;28;20672;-68
2022/02/10 02:29:38;;;;;;;66.00;31.02;;;;;;;;;;5044870;28;20208;-68
2022/02/10 02:32:14;;;;;;;58.65;29.00;;;;;;;;;;5044407;28;20197;-68
2022/02/10 03:06:38;;;;;;;60.25;30.33;;;;;;;;;;5041252;28;20190;-68
2022/02/10 03:09:09;;;;;;;59.35;29.58;;;;;;;;;;5044047;28;20593;-68
2022/02/10 03:11:36;;;;;;;61.92;30.25;;;;;;;;;;5046306;28;20598;-68
2022/02/10 03:14:09;;;;;;;63.05;30.58;;;;;;;;;;5044945;28;20590;-69
2022/02/10 03:19:32;;;;;;;52.10;27.88;;;;;;;;;;5045959;28;20201;-69
2022/02/10 04:13:10;;;;;;;44.53;24.13;;;;;;;;;;5046315;28;20197;-69
2022/02/10 04:28:59;;;;;;;35.42;20.25;;;;;;;;;;5048124;28;20189;-68
2022/02/10 04:58:47;;;;;;;30.77;17.67;;;;;;;;;;5048075;28;20647;-69
2022/02/10 05:24:27;;;;;;;30.92;18.05;;;;;;;;;;5048083;28;20637;-68
2022/02/10 05:32:46;;;;;;;33.88;17.88;;;;;;;;;;5044154;28;20576;-68
2022/02/10 05:38:10;;;;;;;29.63;17.98;;;;;;;;;;5047321;28;20574;-68
2022/02/10 05:59:22;;;;;;;35.40;19.13;;;;;;;;;;5048177;28;20207;-68
2022/02/10 06:02:22;;;;;;;31.52;19.17;;;;;;;;;;5039561;28;20224;-69
2022/02/10 06:53:46;;;;;;;5.13;2.80;;;;;;;;;;5043738;28;20204;-76
2022/02/10 06:56:50;;;;;;;4.20;2.37;;;;;;;;;;5042545;28;20645;-72
2022/02/10 07:05:15;;;;;;;4.40;2.07;;;;;;;;;;5045567;28;20236;-71
2022/02/10 07:12:49;;;;;;;7.47;2.50;;;;;;;;;;5048521;28;20687;-75
2022/02/10 08:04:32;;;;;;;10.70;3.73;;;;;;;;;;5052765;28;20625;-71
2022/02/10 08:55:38;;;;;;;9.73;3.30;;;;;;;;;;5048883;28;20570;-71
2022/02/10 08:58:39;;;;;;;5.77;3.10;;;;;;;;;;5047603;28;20225;-72
2022/02/10 09:03:55;;;;;;;8.83;3.57;;;;;;;;;;5042959;28;20232;-71
2022/02/10 09:06:36;;;;;;;9.23;4.00;;;;;;;;;;5046317;28;20746;-70
2022/02/10 09:22:39;;;;;;;14.73;3.77;;;;;;;;;;5047327;28;20187;-70
2022/02/10 09:50:40;;;;;;;9.30;3.73;;;;;;;;;;5052683;28;20201;-69
2022/02/10 09:55:15;;;;;;;10.87;3.43;;;;;;;;;;5054319;28;20220;-70
2022/02/10 10:00:18;;;;;;;11.70;2.70;;;;;;;;;;5041884;28;20596;-69
2022/02/10 10:03:07;;;;;;;11.23;3.40;;;;;;;;;;5046039;28;20192;-70
2022/02/10 10:05:42;;;;;;;4.70;2.60;;;;;;;;;;5040828;28;20228;-69
2022/02/10 10:08:25;;;;;;;7.50;2.50;;;;;;;;;;5053475;28;20188;-69
2022/02/10 10:11:12;;;;;;;6.80;2.40;;;;;;;;;;5043861;28;20744;-69
2022/02/10 10:16:39;;;;;;;6.07;2.40;;;;;;;;;;5046255;28;20177;-69
2022/02/10 10:21:50;;;;;;;8.80;2.20;;;;;;;;;;5048390;28;20541;-69
2022/02/10 10:27:28;;;;;;;6.25;2.00;;;;;;;;;;5049559;28;20291;-68
2022/02/10 10:49:49;;;;;;;5.37;2.03;;;;;;;;;;5037709;28;20595;-68
2022/02/10 10:55:33;;;;;;;11.13;1.90;;;;;;;;;;5026918;28;20201;-68
2022/02/10 10:57:59;;;;;;;6.50;1.92;;;;;;;;;;5046447;28;20307;-68
2022/02/10 11:07:05;;;;;;;9.40;2.30;;;;;;;;;;5044317;28;20200;-68
2022/02/10 11:36:21;;;;;;;7.67;1.80;;;;;;;;;;5047317;28;20235;-67
2022/02/10 11:37:01;;;;;;;7.75;2.15;;;;;;;;;;5044306;28;20255;-67
2022/02/10 11:42:22;;;;;;;9.07;1.70;;;;;;;;;;5051013;28;20193;-68
2022/02/10 12:34:28;;;;;;;4.28;1.50;;;;;;;;;;5048157;28;20258;-68
2022/02/10 14:09:06;;;;;;;8.03;1.57;;;;;;;;;;5048294;28;20227;-67
2022/02/10 14:09:46;;;;;;;9.63;1.47;;;;;;;;;;5051318;28;20275;-67
2022/02/10 14:15:16;;;;;;;6.30;1.10;;;;;;;;;;5049256;28;20210;-67
2022/02/10 14:17:59;;;;;;;7.03;1.00;;;;;;;;;;5044753;28;20179;-67
2022/02/10 14:25:43;;;;;;;8.53;1.10;;;;;;;;;;5043933;28;20541;-67
2022/02/10 14:28:08;;;;;;;9.53;1.20;;;;;;;;;;5047217;28;20204;-66
2022/02/10 14:30:33;;;;;;;6.57;0.90;;;;;;;;;;5047813;28;20448;-66
2022/02/10 14:32:59;;;;;;;5.80;0.83;;;;;;;;;;5044903;28;20197;-67
2022/02/10 14:35:35;;;;;;;9.83;1.37;;;;;;;;;;5042226;28;20268;-67
2022/02/10 15:14:35;;;;;;;8.63;1.20;;;;;;;;;;5043807;28;20232;-67
2022/02/10 15:16:34;;;;;;;8.65;1.23;;;;;;;;;;5043436;28;20603;-68
2022/02/10 15:31:34;;;;;;;10.95;1.40;;;;;;;;;;5040848;28;20678;-67
2022/02/10 15:47:02;;;;;;;8.13;1.27;;;;;;;;;;5045830;28;20188;-72
2022/02/10 15:49:55;;;;;;;12.25;1.10;;;;;;;;;;5042152;28;20190;-67
2022/02/10 16:19:09;;;;;;;9.63;1.30;;;;;;;;;;5055060;28;20560;-67
2022/02/10 16:21:39;;;;;;;8.35;1.40;;;;;;;;;;5049251;28;20574;-67
2022/02/10 16:24:15;;;;;;;6.70;1.37;;;;;;;;;;5049911;28;20731;-67
2022/02/10 16:26:53;;;;;;;4.90;1.10;;;;;;;;;;5046939;28;20185;-68
2022/02/10 16:29:20;;;;;;;9.53;1.50;;;;;;;;;;5048612;28;20197;-68
2022/02/10 16:31:46;;;;;;;6.20;1.60;;;;;;;;;;5047402;28;20193;-67
2022/02/10 16:34:12;;;;;;;4.27;1.97;;;;;;;;;;5045942;28;20579;-67
2022/02/10 16:36:39;;;;;;;12.55;2.63;;;;;;;;;;5049717;28;20714;-67
2022/02/10 16:39:04;;;;;;;10.90;2.50;;;;;;;;;;5045968;28;20201;-67
2022/02/10 16:41:30;;;;;;;9.77;2.70;;;;;;;;;;5051766;28;20184;-68
2022/02/10 16:43:55;;;;;;;7.88;2.42;;;;;;;;;;5050792;28;20193;-67
2022/02/10 16:46:22;;;;;;;12.97;2.20;;;;;;;;;;5056899;28;20670;-67
2022/02/10 16:48:48;;;;;;;10.03;1.90;;;;;;;;;;5049544;28;20178;-66
2022/02/10 16:51:13;;;;;;;12.07;1.60;;;;;;;;;;5056707;28;20274;-68
2022/02/10 16:53:42;;;;;;;8.20;1.77;;;;;;;;;;5048107;28;20276;-68
2022/02/10 16:56:16;;;;;;;9.13;1.67;;;;;;;;;;5051874;28;20557;-67
2022/02/10 16:58:49;;;;;;;6.40;1.57;;;;;;;;;;5048425;28;20213;-67
2022/02/10 17:01:48;;;;;;;7.00;1.90;;;;;;;;;;5048208;28;20216;-67
2022/02/10 17:15:44;;;;;;;9.07;2.43;;;;;;;;;;5046680;28;20247;-67
2022/02/10 17:18:04;;;;;;;8.93;2.83;;;;;;;;;;5046533;28;20684;-67
2022/02/10 17:20:44;;;;;;;7.90;2.20;;;;;;;;;;5040364;28;20217;-68
2022/02/10 17:26:06;;;;;;;8.70;1.53;;;;;;;;;;5045810;28;20338;-67
2022/02/10 17:28:34;;;;;;;7.30;2.00;;;;;;;;;;5047519;28;20216;-67
2022/02/10 17:31:48;;;;;;;12.67;2.43;;;;;;;;;;5042560;28;20213;-67
2022/02/10 17:36:43;;;;;;;9.70;1.90;;;;;;;;;;5055510;28;20188;-68
2022/02/10 17:52:27;;;;;;;9.90;2.50;;;;;;;;;;5052868;28;21245;-68
2022/02/10 17:54:53;;;;;;;9.03;2.20;;;;;;;;;;5061055;28;20185;-68
2022/02/10 17:57:18;;;;;;;9.70;1.53;;;;;;;;;;5053954;28;20272;-67
2022/02/10 17:59:44;;;;;;;14.63;2.37;;;;;;;;;;5060480;28;20208;-67
2022/02/10 18:02:11;;;;;;;7.13;1.53;;;;;;;;;;5047978;28;20211;-67
2022/02/10 18:04:37;;;;;;;12.30;1.67;;;;;;;;;;5061431;28;20224;-68
2022/02/10 18:07:03;;;;;;;10.97;2.03;;;;;;;;;;5051291;28;20192;-68
2022/02/10 18:09:56;;;;;;;11.10;2.50;;;;;;;;;;5054794;28;20193;-68
2022/02/10 18:12:55;;;;;;;6.10;1.97;;;;;;;;;;5046896;28;20606;-67
2022/02/10 18:15:08;;;;;;;9.07;1.40;;;;;;;;;;5058313;28;20686;-68
2022/02/10 18:17:38;;;;;;;6.47;1.70;;;;;;;;;;5051230;28;20173;-69
2022/02/10 18:20:21;;;;;;;14.00;2.33;;;;;;;;;;5055044;28;20488;-68
2022/02/10 18:23:13;;;;;;;11.50;2.43;;;;;;;;;;5051054;28;20184;-68
2022/02/10 18:25:47;;;;;;;9.07;2.00;;;;;;;;;;5046689;28;20189;-67
2022/02/10 18:33:29;;;;;;;10.50;2.13;;;;;;;;;;5055335;28;20604;-68
2022/02/10 19:06:29;;;;;;;10.27;1.90;;;;;;;;;;5034348;28;20207;-67
2022/02/10 19:11:20;;;;;;;14.77;2.00;;;;;;;;;;5038943;28;20201;-67
2022/02/10 19:13:47;;;;;;;8.90;1.73;;;;;;;;;;5050394;28;20219;-68
2022/02/10 19:16:13;;;;;;;13.30;1.90;;;;;;;;;;5043663;28;20190;-67
2022/02/10 19:18:38;;;;;;;10.23;2.00;;;;;;;;;;5056076;28;20263;-67
2022/02/10 19:21:03;;;;;;;8.63;1.80;;;;;;;;;;5044101;28;20184;-67
2022/02/10 19:23:29;;;;;;;7.17;1.30;;;;;;;;;;5047970;28;20193;-67
2022/02/10 19:25:55;;;;;;;9.20;1.27;;;;;;;;;;5042301;28;20950;-67
2022/02/10 19:28:20;;;;;;;10.13;2.00;;;;;;;;;;5049816;28;20201;-67
2022/02/10 19:30:46;;;;;;;9.43;1.63;;;;;;;;;;5042418;28;20262;-67
2022/02/10 19:33:15;;;;;;;11.50;1.40;;;;;;;;;;5054408;28;20236;-67
2022/02/10 19:35:46;;;;;;;7.13;1.70;;;;;;;;;;5047334;28;20185;-68
2022/02/10 19:38:16;;;;;;;6.23;1.27;;;;;;;;;;5048786;28;20190;-67
2022/02/10 19:40:43;;;;;;;7.23;1.17;;;;;;;;;;5044894;28;20801;-67
2022/02/10 19:43:10;;;;;;;8.80;1.40;;;;;;;;;;5043468;28;20185;-67
2022/02/10 19:45:35;;;;;;;8.73;1.60;;;;;;;;;;5045674;28;20657;-67
2022/02/10 19:48:01;;;;;;;8.87;1.60;;;;;;;;;;5044250;28;20200;-68
2022/02/10 19:50:29;;;;;;;8.77;1.97;;;;;;;;;;5055136;28;20298;-68
2022/02/10 19:52:58;;;;;;;9.30;2.10;;;;;;;;;;5047126;28;20658;-67
2022/02/10 19:55:25;;;;;;;15.90;2.33;;;;;;;;;;5045975;28;20188;-68
2022/02/10 19:57:55;;;;;;;9.47;2.23;;;;;;;;;;5045714;28;20648;-67
2022/02/10 20:00:25;;;;;;;9.57;1.97;;;;;;;;;;5056183;28;20693;-67
2022/02/10 20:02:51;;;;;;;15.60;1.90;;;;;;;;;;5044167;28;20195;-68
2022/02/10 20:05:21;;;;;;;6.10;1.80;;;;;;;;;;5049969;28;20225;-68
2022/02/10 20:07:51;;;;;;;15.33;2.07;;;;;;;;;;5048726;28;20192;-68
2022/02/10 20:10:17;;;;;;;10.63;1.93;;;;;;;;;;5049032;28;20200;-68
2022/02/10 20:12:42;;;;;;;4.37;2.13;;;;;;;;;;5053221;28;20189;-67
2022/02/10 20:15:10;;;;;;;11.10;1.80;;;;;;;;;;5045526;28;20195;-66
2022/02/10 20:17:36;;;;;;;10.07;1.90;;;;;;;;;;5055832;28;20629;-67
2022/02/10 20:20:02;;;;;;;8.47;1.57;;;;;;;;;;5048649;28;20211;-68
2022/02/10 20:22:27;;;;;;;11.73;2.10;;;;;;;;;;5050587;28;20181;-67
2022/02/10 20:24:58;;;;;;;11.83;2.33;;;;;;;;;;5048677;28;20190;-67
2022/02/10 20:27:24;;;;;;;8.47;2.00;;;;;;;;;;5053602;28;20651;-67
2022/02/10 20:29:50;;;;;;;5.63;1.77;;;;;;;;;;5043267;28;21691;-67
2022/02/10 20:32:15;;;;;;;12.10;2.03;;;;;;;;;;5054084;28;20191;-68
2022/02/10 20:34:41;;;;;;;10.00;2.17;;;;;;;;;;5046045;28;20193;-67
2022/02/10 20:37:06;;;;;;;17.07;2.50;;;;;;;;;;5047741;28;20272;-68
2022/02/10 20:39:32;;;;;;;7.93;2.43;;;;;;;;;;5050614;28;20193;-68
2022/02/10 20:42:05;;;;;;;10.10;1.97;;;;;;;;;;5039975;28;20202;-67
2022/02/10 20:44:31;;;;;;;16.73;3.00;;;;;;;;;;5043901;28;20239;-67
2022/02/10 20:46:56;;;;;;;7.70;2.20;;;;;;;;;;5040664;28;20611;-67
2022/02/10 20:49:27;;;;;;;7.37;2.20;;;;;;;;;;5048650;28;20178;-67
2022/02/10 20:51:54;;;;;;;10.60;2.83;;;;;;;;;;5044168;28;20266;-67
2022/02/10 20:54:20;;;;;;;11.50;2.50;;;;;;;;;;5043298;28;20185;-67
2022/02/10 20:56:46;;;;;;;14.97;2.90;;;;;;;;;;4339831;28;10000730;-68
2022/02/10 20:59:28;;;;;;;17.63;3.13;;;;;;;;;;5031533;28;20580;-66
2022/02/10 21:02:02;;;;;;;11.27;2.50;;;;;;;;;;5041812;28;20639;-67
2022/02/10 21:04:31;;;;;;;9.80;2.70;;;;;;;;;;5036870;28;20217;-67
2022/02/10 21:07:03;;;;;;;8.60;2.67;;;;;;;;;;5047896;28;20185;-67
2022/02/10 21:09:43;;;;;;;11.67;2.70;;;;;;;;;;5051928;28;20272;-67
2022/02/10 21:12:11;;;;;;;6.47;2.50;;;;;;;;;;5042412;28;20186;-67
2022/02/10 21:14:37;;;;;;;14.27;3.03;;;;;;;;;;5049422;28;20186;-68
2022/02/10 21:17:08;;;;;;;9.70;2.53;;;;;;;;;;5043811;28;20687;-67
2022/02/10 21:19:34;;;;;;;6.40;2.10;;;;;;;;;;5054970;28;20712;-67
2022/02/10 21:22:06;;;;;;;12.43;2.67;;;;;;;;;;5049454;28;20587;-68
2022/02/10 21:24:32;;;;;;;12.57;2.97;;;;;;;;;;5046321;28;20194;-67
2022/02/10 21:29:52;;;;;;;8.03;2.97;;;;;;;;;;5044355;28;20469;-67
2022/02/10 21:32:18;;;;;;;12.57;2.47;;;;;;;;;;5049238;28;20184;-67
2022/02/10 21:35:05;;;;;;;15.07;2.67;;;;;;;;;;5044646;28;20196;-67
2022/02/10 21:37:29;;;;;;;6.33;2.20;;;;;;;;;;5056825;28;20189;-68
2022/02/10 21:40:12;;;;;;;7.87;2.10;;;;;;;;;;5044862;28;20198;-68
2022/02/10 22:04:47;;;;;;;14.07;3.10;;;;;;;;;;5044518;28;20218;-67
2022/02/10 22:16:27;;;;;;;7.77;2.13;;;;;;;;;;5021390;28;20510;-68
2022/02/10 22:18:30;;;;;;;12.60;2.47;;;;;;;;;;5048117;28;20668;-67
2022/02/10 22:20:45;;;;;;;9.83;2.03;;;;;;;;;;5044206;28;20711;-67
2022/02/10 22:23:21;;;;;;;11.87;1.90;;;;;;;;;;5045399;28;20272;-67
2022/02/10 22:25:47;;;;;;;12.07;2.20;;;;;;;;;;5050868;28;20599;-67
2022/02/10 22:30:56;;;;;;;8.40;1.73;;;;;;;;;;5046297;28;20208;-68
2022/02/10 22:35:51;;;;;;;8.90;1.83;;;;;;;;;;5044380;28;20202;-68
2022/02/10 22:38:20;;;;;;;8.80;1.90;;;;;;;;;;5053052;28;20185;-68
2022/02/10 22:43:21;;;;;;;9.53;1.63;;;;;;;;;;5042667;28;20189;-67
2022/02/10 22:45:47;;;;;;;10.57;2.17;;;;;;;;;;5054243;28;20183;-68
2022/02/10 22:48:12;;;;;;;18.07;2.20;;;;;;;;;;5048408;28;20568;-69
2022/02/10 22:50:38;;;;;;;10.10;2.30;;;;;;;;;;5044666;28;20640;-68
2022/02/10 22:53:03;;;;;;;9.33;2.00;;;;;;;;;;5045314;28;20659;-68
2022/02/10 22:55:30;;;;;;;7.20;2.00;;;;;;;;;;5045598;28;20319;-68
2022/02/10 22:57:55;;;;;;;6.07;2.10;;;;;;;;;;5042528;28;20265;-67
2022/02/10 23:00:30;;;;;;;12.00;2.30;;;;;;;;;;5047759;28;20327;-69
2022/02/10 23:02:56;;;;;;;10.53;2.03;;;;;;;;;;5041857;28;20291;-68
2022/02/10 23:05:23;;;;;;;9.07;1.80;;;;;;;;;;5043521;28;20748;-67
2022/02/10 23:07:52;;;;;;;6.87;1.73;;;;;;;;;;5040942;28;20192;-68
2022/02/10 23:12:43;;;;;;;11.70;2.37;;;;;;;;;;5043150;28;20224;-67
2022/02/10 23:15:08;;;;;;;10.37;2.23;;;;;;;;;;5046775;28;20877;-67
2022/02/10 23:17:36;;;;;;;11.97;1.77;;;;;;;;;;5038220;28;20177;-68
2022/02/10 23:20:02;;;;;;;5.70;2.00;;;;;;;;;;5050029;28;20587;-68
2022/02/10 23:22:27;;;;;;;8.90;2.00;;;;;;;;;;5041755;28;20586;-68
2022/02/10 23:24:53;;;;;;;5.90;1.57;;;;;;;;;;5053966;28;20310;-67
2022/02/10 23:27:18;;;;;;;8.37;1.80;;;;;;;;;;5042321;28;20353;-68
2022/02/10 23:29:43;;;;;;;7.20;1.83;;;;;;;;;;5053118;28;20560;-67
2022/02/10 23:32:10;;;;;;;9.83;2.30;;;;;;;;;;5046251;28;20589;-68
2022/02/10 23:34:36;;;;;;;10.17;2.07;;;;;;;;;;5044435;28;20264;-67
2022/02/10 23:37:02;;;;;;;9.07;2.47;;;;;;;;;;5043646;28;20659;-67
2022/02/10 23:39:30;;;;;;;9.07;2.10;;;;;;;;;;5047785;28;20204;-68
2022/02/10 23:44:35;;;;;;;10.03;2.13;;;;;;;;;;5042314;28;20185;-67
2022/02/10 23:47:03;;;;;;;10.80;2.63;;;;;;;;;;5043879;28;20318;-67
2022/02/10 23:49:32;;;;;;;7.97;2.30;;;;;;;;;;5044937;28;20637;-68
2022/02/10 23:52:05;;;;;;;9.90;2.20;;;;;;;;;;5042124;28;20271;-68
2022/02/10 23:54:34;;;;;;;11.20;2.43;;;;;;;;;;5044236;28;20211;-67
